Oakbrook, Washington
Current Conditions -  °F | °C
As of 2:04 PM on Thursday 27 Nov 2014 (Local Time) from KTCM Reporting Station
Light Rain Light Rain  
Wind Chill: 55°   Ceiling: 2900
Heat Index: 55°   Visibility: 10mi
Dew Point: 54°   Wind: 16mph
Humidity: 94%   Direction: 190°S
Pressure: 29.82"   Gusts: 21mph
Location:  47.1809°N, 122.548°W
Report Text: KTCM 272204Z AUTO 19014G18KT 10SM -RA FEW011 BKN029 OVC039 13/12 A2982 RMK AO2 RAB2159 BKN V OVC $
Loading
Personal Weather Stations






























Interactive Weather Map New forecast layout! Learn more

10-Day Weather Forecast

Advertisements
Track Severe Weather on mobile